Time;durP1;ratioP1;P1;durP2;ratioP2;P2;SDS_P1;SDS_P2;PMS_P1;PMS_P2;Temp;Humidity;BMP_temperature;BMP_pressure;BME280_temperature;BME280_humidity;BME280_pressure;Samples;Min_cycle;Max_cycle;Signal;HPM_P1;HPM_P2
2023/01/03 00:01:28;;;;;;;76.97;33.50;;;12.80;97.40;;;;;;6340777;22;19999;-92
2023/01/03 00:03:55;;;;;;;74.40;36.28;;;12.80;97.30;;;;;;6313036;22;20011;-93
2023/01/03 00:06:23;;;;;;;77.07;36.72;;;12.90;97.30;;;;;;6339502;22;20026;-86
2023/01/03 00:08:49;;;;;;;77.18;36.03;;;12.90;97.20;;;;;;6339895;22;20006;-85
2023/01/03 00:11:18;;;;;;;80.00;36.20;;;12.90;97.20;;;;;;6339383;22;20325;-86
2023/01/03 00:13:44;;;;;;;72.72;35.47;;;12.90;97.10;;;;;;6339737;22;20002;-87
2023/01/03 00:16:17;;;;;;;75.82;34.65;;;12.90;97.10;;;;;;6338507;22;20078;-84
2023/01/03 00:18:42;;;;;;;77.13;35.75;;;12.90;97.10;;;;;;6339617;22;20006;-84
2023/01/03 00:21:08;;;;;;;73.03;34.55;;;12.90;97.00;;;;;;6310727;22;20005;-86
2023/01/03 00:23:34;;;;;;;78.72;35.40;;;12.90;97.00;;;;;;6339111;22;20498;-84
2023/01/03 00:26:08;;;;;;;84.13;37.08;;;12.90;97.00;;;;;;6310797;22;20007;-84
2023/01/03 00:28:34;;;;;;;78.63;36.88;;;12.90;97.00;;;;;;6339099;22;20395;-88
2023/01/03 00:31:06;;;;;;;85.15;39.63;;;12.90;97.00;;;;;;6312279;22;20038;-87
2023/01/03 00:33:32;;;;;;;80.75;36.08;;;12.80;96.90;;;;;;6338938;22;19999;-87
2023/01/03 00:36:01;;;;;;;77.80;36.20;;;12.70;96.80;;;;;;6339234;22;20006;-87
2023/01/03 00:38:27;;;;;;;80.07;35.58;;;12.70;97.10;;;;;;6339528;22;20002;-87
2023/01/03 00:40:52;;;;;;;77.43;35.13;;;12.70;97.20;;;;;;6339237;22;20026;-87
2023/01/03 00:43:27;;;;;;;83.05;36.88;;;12.70;97.30;;;;;;6339025;22;20515;-86
2023/01/03 00:45:53;;;;;;;81.25;36.95;;;12.70;97.30;;;;;;6339726;22;20480;-89
2023/01/03 00:48:19;;;;;;;82.35;35.90;;;12.70;97.30;;;;;;6311827;22;20045;-87
2023/01/03 00:50:44;;;;;;;83.53;35.45;;;12.80;97.30;;;;;;6339411;22;19998;-86
2023/01/03 00:53:10;;;;;;;90.78;37.08;;;12.80;97.30;;;;;;6339083;22;20098;-87
2023/01/03 00:55:36;;;;;;;81.57;35.67;;;12.80;97.30;;;;;;6339423;22;20002;-88
2023/01/03 00:58:01;;;;;;;83.43;36.85;;;12.80;97.20;;;;;;6339674;22;20116;-89
2023/01/03 01:00:27;;;;;;;77.25;35.30;;;12.80;97.20;;;;;;6339809;22;19999;-89
2023/01/03 01:02:53;;;;;;;84.57;37.28;;;12.80;97.10;;;;;;6339491;22;19995;-88
2023/01/03 01:05:19;;;;;;;89.90;39.28;;;12.80;97.10;;;;;;6339324;22;20003;-87
2023/01/03 01:07:45;;;;;;;79.85;36.10;;;12.80;97.10;;;;;;6312225;22;20003;-88
2023/01/03 01:10:11;;;;;;;86.60;38.20;;;12.80;97.20;;;;;;6338568;22;20009;-87
2023/01/03 01:12:37;;;;;;;87.05;37.38;;;12.70;97.20;;;;;;6338895;22;19999;-88
2023/01/03 01:15:03;;;;;;;92.50;37.63;;;12.70;97.30;;;;;;6311131;22;20003;-86
2023/01/03 01:17:28;;;;;;;87.18;37.60;;;12.60;97.30;;;;;;6339110;22;20011;-86
2023/01/03 01:19:54;;;;;;;82.20;37.17;;;12.60;97.40;;;;;;6339259;22;20026;-86
2023/01/03 01:22:20;;;;;;;87.20;37.72;;;12.60;97.40;;;;;;6336566;22;20024;-86
2023/01/03 01:24:45;;;;;;;91.55;38.97;;;12.60;97.50;;;;;;6336983;22;20048;-86
2023/01/03 01:27:11;;;;;;;86.25;39.13;;;12.60;97.40;;;;;;6338601;22;20003;-86
2023/01/03 01:29:37;;;;;;;78.85;36.92;;;12.70;97.50;;;;;;6338454;22;20003;-86
2023/01/03 01:32:04;;;;;;;83.75;38.45;;;12.70;97.50;;;;;;6338072;22;19999;-86
2023/01/03 01:34:30;;;;;;;84.82;38.08;;;12.70;97.50;;;;;;6338098;22;20002;-86
2023/01/03 01:36:56;;;;;;;86.57;38.55;;;12.70;97.50;;;;;;6338597;22;20026;-85
2023/01/03 01:39:26;;;;;;;87.20;38.53;;;12.70;97.50;;;;;;6338769;22;20048;-85
2023/01/03 01:44:48;;;;;;;82.80;37.30;;;12.70;97.40;;;;;;6338344;22;20010;-85
2023/01/03 01:47:26;;;;;;;89.80;38.65;;;12.70;97.40;;;;;;6339023;22;19998;-86
2023/01/03 01:50:16;;;;;;;94.32;41.10;;;12.80;97.40;;;;;;6338817;22;19999;-85
2023/01/03 01:52:49;;;;;;;86.78;36.80;;;12.80;97.30;;;;;;6339126;22;20048;-86
2023/01/03 01:55:18;;;;;;;91.32;40.00;;;12.70;97.30;;;;;;6325311;22;20719;-85
2023/01/03 01:57:45;;;;;;;101.10;42.38;;;12.70;97.30;;;;;;6310922;22;20009;-85
2023/01/03 02:00:11;;;;;;;91.75;40.40;;;12.70;97.30;;;;;;6338668;22;20002;-85
2023/01/03 02:02:37;;;;;;;93.70;40.08;;;12.70;97.40;;;;;;6338837;22;20432;-86
2023/01/03 02:05:06;;;;;;;89.30;40.05;;;12.70;97.50;;;;;;6337978;22;20003;-86
2023/01/03 02:07:33;;;;;;;101.35;41.17;;;12.70;97.40;;;;;;6338476;22;20006;-85
2023/01/03 02:09:59;;;;;;;92.82;40.50;;;12.70;97.40;;;;;;6311043;22;20006;-85
2023/01/03 02:13:07;;;;;;;86.07;39.78;;;12.80;97.50;;;;;;6337888;22;20164;-85
2023/01/03 02:15:32;;;;;;;87.00;39.60;;;12.70;97.40;;;;;;6338127;22;20003;-86
2023/01/03 02:18:22;;;;;;;95.28;39.80;;;12.70;97.40;;;;;;6310351;22;20332;-86
2023/01/03 02:21:06;;;;;;;92.85;41.13;;;12.70;97.40;;;;;;6338714;22;20101;-86
2023/01/03 02:23:32;;;;;;;90.43;39.53;;;12.60;97.50;;;;;;6310225;22;19999;-85
2023/01/03 02:26:23;;;;;;;89.70;38.53;;;12.60;97.40;;;;;;6337765;22;20003;-83
2023/01/03 02:29:18;;;;;;;83.97;37.40;;;12.60;97.50;;;;;;6278840;22;20052;-82
2023/01/03 02:32:07;;;;;;;93.35;39.47;;;12.60;97.50;;;;;;6338081;22;20002;-83
2023/01/03 02:35:09;;;;;;;92.05;39.08;;;12.60;97.50;;;;;;6337906;22;19999;-83
2023/01/03 02:38:00;;;;;;;86.07;37.00;;;12.50;97.50;;;;;;6279292;22;20513;-85
2023/01/03 02:40:35;;;;;;;87.85;39.42;;;12.50;97.60;;;;;;6310433;22;20042;-85
2023/01/03 02:43:07;;;;;;;101.28;41.75;;;12.50;97.60;;;;;;6309973;22;20003;-85
2023/01/03 02:45:54;;;;;;;88.90;39.22;;;12.50;97.80;;;;;;6337415;22;20026;-85
2023/01/03 02:48:20;;;;;;;89.82;39.35;;;12.40;97.70;;;;;;6340020;22;20014;-85
2023/01/03 02:50:50;;;;;;;88.72;38.78;;;12.50;97.80;;;;;;6340209;22;20320;-85
2023/01/03 02:53:22;;;;;;;88.18;38.67;;;12.50;97.80;;;;;;6339414;22;20006;-85
2023/01/03 02:55:51;;;;;;;98.55;40.38;;;12.50;97.80;;;;;;6311775;22;20433;-85
2023/01/03 02:58:21;;;;;;;91.72;40.03;;;12.50;97.80;;;;;;6340196;22;20026;-84
2023/01/03 03:00:50;;;;;;;97.07;40.20;;;12.50;97.90;;;;;;6339514;22;20022;-85
2023/01/03 03:03:22;;;;;;;93.88;38.47;;;12.50;97.90;;;;;;6339226;22;19999;-86
2023/01/03 03:06:05;;;;;;;90.53;39.30;;;12.50;97.80;;;;;;6312627;22;20010;-85
2023/01/03 03:08:31;;;;;;;91.60;37.63;;;12.60;97.90;;;;;;6340477;22;20002;-86
2023/01/03 03:14:21;;;;;;;92.18;38.63;;;12.60;97.80;;;;;;6339839;22;20021;-86
2023/01/03 03:16:50;;;;;;;96.90;39.75;;;12.60;97.80;;;;;;6344585;22;20017;-85
2023/01/03 03:24:48;;;;;;;92.93;38.83;;;12.60;97.80;;;;;;6343296;22;20005;-85
2023/01/03 03:25:01;;;;;;;80.78;37.97;;;12.60;97.70;;;;;;6339369;22;20333;-85
2023/01/03 03:30:20;;;;;;;107.47;41.38;;;12.60;97.70;;;;;;6340028;22;20452;-86
2023/01/03 03:32:49;;;;;;;80.97;36.45;;;12.60;97.70;;;;;;6340053;22;20042;-89
2023/01/03 03:35:19;;;;;;;80.05;35.55;;;12.60;97.70;;;;;;6340102;22;20424;-85
2023/01/03 03:37:49;;;;;;;82.47;36.97;;;12.50;97.80;;;;;;6312055;22;20006;-86
2023/01/03 03:46:11;;;;;;;88.95;37.75;;;12.50;97.90;;;;;;6340189;22;20059;-88
2023/01/03 03:51:30;;;;;;;73.15;34.50;;;12.50;98.00;;;;;;6339701;22;20037;-88
2023/01/03 03:53:58;;;;;;;79.82;35.55;;;12.50;98.00;;;;;;6312642;22;20056;-88
2023/01/03 03:56:33;;;;;;;74.20;32.83;;;12.50;97.90;;;;;;6340483;22;19998;-88
2023/01/03 03:59:04;;;;;;;71.57;32.60;;;12.50;97.90;;;;;;6312057;22;20336;-87
2023/01/03 04:01:32;;;;;;;76.57;35.30;;;12.50;98.00;;;;;;6340009;22;20007;-85
2023/01/03 04:04:04;;;;;;;77.30;35.22;;;12.50;98.00;;;;;;6338226;22;19999;-84
2023/01/03 04:06:32;;;;;;;72.82;35.35;;;12.50;98.00;;;;;;6339439;22;20025;-85
2023/01/03 04:08:58;;;;;;;77.40;35.42;;;12.50;98.00;;;;;;6339384;22;19999;-86
2023/01/03 04:11:24;;;;;;;71.70;33.33;;;12.50;98.00;;;;;;6339804;22;20010;-86
2023/01/03 04:13:50;;;;;;;68.55;33.05;;;12.50;97.90;;;;;;6311285;22;20006;-86
2023/01/03 04:16:15;;;;;;;68.57;33.85;;;12.50;97.90;;;;;;6311815;22;20003;-86
2023/01/03 04:18:41;;;;;;;72.65;34.35;;;12.50;98.00;;;;;;6339289;22;20018;-86
2023/01/03 04:21:07;;;;;;;70.15;34.58;;;12.40;98.00;;;;;;6339353;22;20014;-86
2023/01/03 04:23:32;;;;;;;67.88;32.53;;;12.40;98.00;;;;;;6339327;22;20057;-86
2023/01/03 04:25:58;;;;;;;68.03;32.58;;;12.50;98.00;;;;;;6339186;22;19998;-85
2023/01/03 04:28:24;;;;;;;65.07;31.58;;;12.50;98.00;;;;;;6339069;22;20003;-85
2023/01/03 04:30:50;;;;;;;71.72;31.77;;;12.50;98.00;;;;;;6339151;22;20003;-83
2023/01/03 04:33:15;;;;;;;65.85;32.97;;;12.50;98.00;;;;;;6338776;22;19999;-85
2023/01/03 04:35:41;;;;;;;71.40;36.03;;;12.50;98.00;;;;;;6338529;22;20013;-84
2023/01/03 04:38:07;;;;;;;64.47;32.70;;;12.50;97.80;;;;;;6339235;22;20003;-83
2023/01/03 04:40:33;;;;;;;60.65;30.25;;;12.50;97.90;;;;;;6342301;22;20021;-84
2023/01/03 04:45:43;;;;;;;61.15;30.50;;;12.50;98.10;;;;;;6339910;22;20014;-87
2023/01/03 04:48:09;;;;;;;63.10;31.65;;;12.50;97.90;;;;;;6339941;22;19999;-88
2023/01/03 04:50:35;;;;;;;66.03;33.15;;;12.50;97.90;;;;;;6339880;22;20010;-88
2023/01/03 04:53:01;;;;;;;62.00;32.65;;;12.50;98.10;;;;;;6340140;22;20002;-88
2023/01/03 04:55:26;;;;;;;59.63;31.13;;;12.40;97.90;;;;;;6340067;22;20027;-89
2023/01/03 04:57:52;;;;;;;59.38;30.50;;;12.40;98.00;;;;;;6339414;22;19999;-86
2023/01/03 05:00:18;;;;;;;63.70;30.60;;;12.50;98.00;;;;;;6339414;22;20003;-86
2023/01/03 05:02:43;;;;;;;60.05;32.30;;;12.50;98.00;;;;;;6311277;22;19999;-86
2023/01/03 05:05:09;;;;;;;61.95;33.35;;;12.40;97.90;;;;;;6339283;22;19999;-87
2023/01/03 05:07:35;;;;;;;61.05;30.98;;;12.40;97.90;;;;;;6339381;22;20070;-87
2023/01/03 05:10:01;;;;;;;62.30;30.60;;;12.40;97.90;;;;;;6339206;22;20086;-87
2023/01/03 05:12:26;;;;;;;57.80;30.67;;;12.40;98.00;;;;;;6339238;22;19999;-86
2023/01/03 05:14:52;;;;;;;65.18;32.90;;;12.50;98.00;;;;;;6338937;22;20007;-85
2023/01/03 05:17:19;;;;;;;73.13;36.63;;;12.50;97.90;;;;;;6338851;22;20387;-84
2023/01/03 05:28:09;;;;;;;63.72;30.92;;;12.30;98.20;;;;;;6338208;22;20542;-83
2023/01/03 05:30:35;;;;;;;66.15;32.22;;;12.30;98.20;;;;;;6339130;22;20003;-83
2023/01/03 05:33:01;;;;;;;77.43;34.10;;;12.30;98.20;;;;;;6337687;22;20003;-83
2023/01/03 05:35:26;;;;;;;67.72;32.45;;;12.30;98.10;;;;;;6337777;22;20006;-83
2023/01/03 05:37:53;;;;;;;76.03;37.42;;;12.30;98.20;;;;;;6338008;22;20007;-83
2023/01/03 05:40:18;;;;;;;76.15;33.35;;;12.30;98.10;;;;;;6338154;22;20301;-82
2023/01/03 05:42:44;;;;;;;64.00;32.65;;;12.30;98.30;;;;;;6336857;22;20005;-82
2023/01/03 05:45:10;;;;;;;62.40;32.40;;;12.30;98.30;;;;;;6338634;22;20075;-84
2023/01/03 05:47:36;;;;;;;61.47;31.13;;;12.30;98.20;;;;;;6338541;22;20436;-84
2023/01/03 05:50:02;;;;;;;71.10;32.63;;;12.30;98.20;;;;;;6338432;22;19998;-83
2023/01/03 05:52:27;;;;;;;74.13;33.17;;;12.30;98.20;;;;;;6337168;22;20074;-83
2023/01/03 05:54:53;;;;;;;78.55;35.40;;;12.30;98.20;;;;;;6338556;22;20078;-83
2023/01/03 05:57:18;;;;;;;68.45;33.45;;;12.40;98.20;;;;;;6339308;22;20021;-83
2023/01/03 05:59:44;;;;;;;69.78;32.22;;;12.40;98.20;;;;;;6310177;22;20007;-83
2023/01/03 06:02:10;;;;;;;69.30;31.73;;;12.30;98.30;;;;;;6338643;22;20060;-82
2023/01/03 06:04:35;;;;;;;73.72;33.10;;;12.30;98.30;;;;;;6337179;22;19998;-82
2023/01/03 06:07:01;;;;;;;68.35;31.60;;;12.30;98.30;;;;;;6338719;22;19995;-83
2023/01/03 06:09:30;;;;;;;71.00;32.08;;;12.30;98.40;;;;;;6337889;22;20349;-83
2023/01/03 06:11:56;;;;;;;71.28;34.35;;;13.00;98.60;;;;;;6310437;22;20417;-82
2023/01/03 06:14:24;;;;;;;76.53;35.63;;;12.30;98.40;;;;;;6337423;22;20401;-83
2023/01/03 06:19:36;;;;;;;62.58;30.08;;;12.30;98.40;;;;;;6338063;22;20369;-83
2023/01/03 06:22:02;;;;;;;66.18;30.50;;;12.30;98.40;;;;;;6337875;22;20018;-87
2023/01/03 06:24:27;;;;;;;78.15;34.55;;;12.30;98.40;;;;;;6338187;22;20002;-86
2023/01/03 06:26:53;;;;;;;67.82;32.28;;;12.30;98.40;;;;;;6310335;22;20027;-85
2023/01/03 06:29:18;;;;;;;73.28;34.35;;;12.40;98.40;;;;;;6338043;22;20003;-84
2023/01/03 06:31:44;;;;;;;67.70;30.65;;;12.30;98.30;;;;;;6310082;22;20003;-84
2023/01/03 06:34:10;;;;;;;73.30;33.40;;;12.40;98.40;;;;;;6310178;22;20009;-84
2023/01/03 06:36:36;;;;;;;72.75;34.65;;;12.40;98.30;;;;;;6337592;22;20061;-86
2023/01/03 06:39:02;;;;;;;68.28;31.73;;;12.40;98.30;;;;;;6338269;22;20341;-86
2023/01/03 06:41:28;;;;;;;76.20;32.47;;;12.40;98.30;;;;;;6310866;22;20003;-86
2023/01/03 06:43:54;;;;;;;74.18;34.72;;;12.40;98.30;;;;;;6338894;22;20458;-85
2023/01/03 06:54:36;;;;;;;63.13;30.63;;;12.40;98.20;;;;;;6336618;22;20057;-84
2023/01/03 06:57:02;;;;;;;70.30;33.67;;;12.50;98.20;;;;;;6338008;22;20065;-85
2023/01/03 06:59:28;;;;;;;68.93;34.05;;;12.50;98.20;;;;;;6337365;22;19999;-83
2023/01/03 07:01:54;;;;;;;67.82;33.33;;;12.50;98.20;;;;;;6337988;22;19999;-84
2023/01/03 07:04:22;;;;;;;80.03;35.25;;;12.50;98.20;;;;;;6338037;22;20362;-83
2023/01/03 07:06:48;;;;;;;60.05;31.10;;;12.50;98.10;;;;;;6338882;22;20037;-83
2023/01/03 07:09:14;;;;;;;64.53;32.45;;;12.50;98.10;;;;;;6337798;22;20003;-84
2023/01/03 07:11:41;;;;;;;61.53;31.38;;;12.50;98.10;;;;;;6336866;22;20452;-84
2023/01/03 07:14:09;;;;;;;68.85;33.05;;;12.50;98.10;;;;;;6335315;22;20520;-84
2023/01/03 07:16:44;;;;;;;63.53;31.05;;;12.60;98.10;;;;;;6336726;22;20128;-87
2023/01/03 07:19:13;;;;;;;70.75;33.63;;;12.50;97.90;;;;;;6311510;22;20010;-86
2023/01/03 07:21:39;;;;;;;65.50;32.33;;;12.60;98.10;;;;;;6337222;22;19999;-84
2023/01/03 07:24:06;;;;;;;61.53;30.00;;;12.50;98.00;;;;;;6337666;22;20026;-86
2023/01/03 07:26:33;;;;;;;68.38;32.72;;;12.50;98.10;;;;;;6338052;22;20003;-86
2023/01/03 07:29:01;;;;;;;61.90;30.70;;;12.50;98.00;;;;;;6338755;22;20003;-86
2023/01/03 07:31:26;;;;;;;70.72;32.45;;;12.50;98.10;;;;;;6337925;22;20428;-85
2023/01/03 07:33:52;;;;;;;70.15;32.05;;;12.50;98.10;;;;;;6343034;22;19999;-92
2023/01/03 07:36:20;;;;;;;68.65;32.50;;;12.60;98.10;;;;;;6346579;22;20002;-92
2023/01/03 07:38:46;;;;;;;71.45;30.40;;;12.50;98.10;;;;;;6344801;22;20006;-93
2023/01/03 07:41:13;;;;;;;73.38;31.88;;;12.50;98.10;;;;;;6342804;22;19999;-90
2023/01/03 07:43:41;;;;;;;71.82;32.53;;;12.50;98.10;;;;;;6341933;22;19999;-88
2023/01/03 07:46:23;;;;;;;70.78;32.58;;;12.50;98.20;;;;;;6341678;22;20003;-88
2023/01/03 07:48:56;;;;;;;68.72;31.35;;;12.60;98.20;;;;;;6342380;22;19999;-89
2023/01/03 07:51:22;;;;;;;70.82;32.25;;;12.60;98.20;;;;;;6313419;22;20463;-89
2023/01/03 07:53:52;;;;;;;67.18;32.05;;;12.60;98.20;;;;;;6343531;22;20002;-89
2023/01/03 07:56:20;;;;;;;69.13;32.40;;;12.60;98.20;;;;;;6339321;22;20003;-87
2023/01/03 07:58:46;;;;;;;61.63;31.33;;;12.60;98.00;;;;;;6339659;22;20022;-87
2023/01/03 08:01:15;;;;;;;63.13;31.85;;;12.60;98.00;;;;;;6339751;22;20384;-87
2023/01/03 08:03:42;;;;;;;67.15;31.75;;;12.60;98.00;;;;;;6340112;22;20400;-85
2023/01/03 08:06:11;;;;;;;68.93;33.20;;;12.60;98.00;;;;;;6339034;22;20405;-86
2023/01/03 08:08:37;;;;;;;67.07;31.10;;;12.70;98.10;;;;;;6339867;22;20456;-87
2023/01/03 08:14:06;;;;;;;66.13;30.42;;;12.70;98.10;;;;;;6337999;22;20014;-85
2023/01/03 08:16:33;;;;;;;63.58;30.27;;;12.80;98.00;;;;;;6308605;22;20013;-86
2023/01/03 08:18:59;;;;;;;66.07;29.77;;;12.80;97.90;;;;;;6338662;22;20002;-81
2023/01/03 08:21:24;;;;;;;64.25;31.27;;;12.80;97.80;;;;;;6338696;22;20058;-82
2023/01/03 08:23:50;;;;;;;60.17;29.77;;;12.90;97.80;;;;;;6338580;22;20007;-82
2023/01/03 08:26:16;;;;;;;68.00;33.30;;;12.90;97.80;;;;;;6338182;22;20009;-82
2023/01/03 08:28:43;;;;;;;71.97;33.35;;;12.90;97.70;;;;;;6311089;22;20390;-83
2023/01/03 08:31:13;;;;;;;58.30;29.73;;;12.90;97.70;;;;;;6338660;22;20003;-83
2023/01/03 08:33:43;;;;;;;63.92;32.42;;;13.00;97.70;;;;;;6337662;22;20079;-82
2023/01/03 08:36:10;;;;;;;62.25;31.80;;;13.00;97.60;;;;;;6338737;22;20007;-81
2023/01/03 08:38:42;;;;;;;67.85;33.92;;;13.00;97.60;;;;;;6311205;22;20026;-81
2023/01/03 08:41:10;;;;;;;65.57;32.10;;;13.00;97.50;;;;;;6341025;22;20005;-91
2023/01/03 08:43:39;;;;;;;66.05;31.42;;;13.00;97.50;;;;;;6316233;22;20002;-89
2023/01/03 08:46:07;;;;;;;61.35;31.27;;;13.10;97.50;;;;;;6344392;22;20013;-88
2023/01/03 08:48:33;;;;;;;63.50;32.33;;;13.10;97.50;;;;;;6339858;22;20105;-86
2023/01/03 08:51:00;;;;;;;65.65;33.75;;;13.10;97.40;;;;;;6339553;22;20013;-85
2023/01/03 08:53:27;;;;;;;59.95;30.85;;;13.10;97.30;;;;;;6338696;22;20011;-85
2023/01/03 08:55:53;;;;;;;69.80;32.58;;;13.10;97.30;;;;;;6338710;22;20310;-84
2023/01/03 08:58:19;;;;;;;59.53;32.15;;;13.10;97.30;;;;;;6339904;22;20003;-84
2023/01/03 09:00:45;;;;;;;63.50;32.45;;;13.10;97.20;;;;;;6338641;22;20371;-84
2023/01/03 09:03:10;;;;;;;62.13;31.55;;;13.10;97.20;;;;;;6338976;22;20003;-87
2023/01/03 09:05:36;;;;;;;58.55;30.95;;;13.10;97.20;;;;;;6340168;22;20414;-87
2023/01/03 09:08:02;;;;;;;61.20;32.13;;;13.10;97.10;;;;;;6339494;22;20003;-86
2023/01/03 09:10:29;;;;;;;54.38;30.67;;;13.10;97.10;;;;;;6312858;22;20041;-86
2023/01/03 09:15:24;;;;;;;60.90;33.35;;;13.10;97.10;;;;;;6364290;22;20013;-82
2023/01/03 09:17:49;;;;;;;58.50;30.87;;;13.10;97.00;;;;;;6400538;22;20042;-83
2023/01/03 09:20:17;;;;;;;51.15;30.02;;;13.10;97.00;;;;;;6371662;22;20002;-84
2023/01/03 09:22:43;;;;;;;51.47;31.63;;;13.10;97.00;;;;;;6401577;22;19994;-84
2023/01/03 09:25:09;;;;;;;49.53;28.27;;;13.10;96.90;;;;;;6401031;22;20002;-83
2023/01/03 09:27:35;;;;;;;52.33;29.35;;;13.10;96.90;;;;;;6401372;22;19998;-80
2023/01/03 09:30:01;;;;;;;50.75;29.30;;;13.10;97.00;;;;;;6399726;22;20002;-79
2023/01/03 09:32:27;;;;;;;50.05;28.50;;;13.10;96.90;;;;;;6400515;22;20032;-79
2023/01/03 09:34:52;;;;;;;51.90;30.60;;;13.20;96.90;;;;;;6399844;22;20009;-79
2023/01/03 09:37:18;;;;;;;46.63;27.98;;;13.20;96.90;;;;;;6400812;22;19997;-79
2023/01/03 09:39:44;;;;;;;49.13;29.45;;;13.30;96.80;;;;;;6370914;22;20438;-78
2023/01/03 09:45:04;;;;;;;54.40;30.70;;;13.30;96.50;;;;;;6371011;22;20333;-74
2023/01/03 09:47:34;;;;;;;44.50;27.42;;;13.30;96.20;;;;;;6334825;22;20026;-75
2023/01/03 09:50:00;;;;;;;45.45;27.73;;;13.30;96.40;;;;;;6337717;22;20404;-74
2023/01/03 10:04:44;;;;;;;47.90;27.77;;;13.30;96.10;;;;;;6337393;22;20060;-76
2023/01/03 10:07:36;;;;;;;51.10;27.90;;;13.30;96.20;;;;;;6310669;22;20026;-74
2023/01/03 10:10:18;;;;;;;53.33;29.38;;;13.30;96.20;;;;;;6309306;22;20452;-73
2023/01/03 10:12:44;;;;;;;47.42;27.58;;;13.30;96.20;;;;;;6337250;22;20009;-73
2023/01/03 10:15:25;;;;;;;53.55;26.45;;;13.30;96.20;;;;;;6335942;22;20284;-78
2023/01/03 10:18:15;;;;;;;46.75;26.88;;;13.30;96.20;;;;;;6336078;22;20413;-73
2023/01/03 10:20:40;;;;;;;;;;;13.30;96.00;;;;;;6308099;22;20123;-77
2023/01/03 10:23:08;;;;;;;44.58;25.75;;;13.30;96.10;;;;;;6337302;22;19930;-76
2023/01/03 10:25:40;;;;;;;54.45;29.33;;;13.30;96.10;;;;;;6337274;22;20443;-72
2023/01/03 10:28:22;;;;;;;48.45;27.25;;;13.30;96.10;;;;;;6337219;22;20006;-72
2023/01/03 10:31:09;;;;;;;48.42;26.77;;;13.30;96.10;;;;;;6336221;22;20074;-72
2023/01/03 10:33:48;;;;;;;44.28;26.30;;;13.40;96.00;;;;;;6337352;22;20013;-72
2023/01/03 10:36:16;;;;;;;44.40;27.58;;;13.40;96.00;;;;;;6336242;22;20073;-73
2023/01/03 10:38:43;;;;;;;44.47;25.75;;;13.40;96.00;;;;;;6337116;22;20351;-72
2023/01/03 10:41:44;;;;;;;44.88;25.90;;;13.40;96.10;;;;;;6336579;22;20002;-72
2023/01/03 10:44:31;;;;;;;51.03;30.45;;;13.50;96.10;;;;;;6336903;22;20006;-73
2023/01/03 10:47:06;;;;;;;41.83;24.00;;;13.40;95.70;;;;;;6305619;22;20445;-72
2023/01/03 10:49:32;;;;;;;42.63;24.30;;;13.40;95.60;;;;;;6305710;22;20003;-73
2023/01/03 10:52:13;;;;;;;45.33;25.80;;;13.30;95.80;;;;;;6304912;22;20034;-72
2023/01/03 10:54:53;;;;;;;45.97;26.27;;;13.40;95.90;;;;;;6305602;22;20003;-72
2023/01/03 10:57:38;;;;;;;;;;;13.40;95.90;;;;;;6306852;22;20010;-73
2023/01/03 11:00:22;;;;;;;43.00;24.63;;;13.40;95.90;;;;;;6305342;22;19930;-76
2023/01/03 11:02:49;;;;;;;49.80;27.63;;;13.50;96.00;;;;;;6305604;22;20072;-76
2023/01/03 11:05:18;;;;;;;46.67;26.73;;;13.60;95.90;;;;;;6306123;22;20052;-76
2023/01/03 11:07:52;;;;;;;45.92;25.83;;;13.60;95.80;;;;;;6305116;22;20074;-76
2023/01/03 11:10:18;;;;;;;49.63;28.45;;;13.70;95.80;;;;;;6305576;22;20011;-76
2023/01/03 11:12:45;;;;;;;46.13;25.92;;;13.70;95.70;;;;;;6307931;22;20410;-76
2023/01/03 11:15:34;;;;;;;45.10;25.73;;;13.80;95.60;;;;;;6307988;22;20031;-75
2023/01/03 11:18:03;;;;;;;40.00;22.25;;;13.70;95.50;;;;;;6305879;22;20048;-76
2023/01/03 11:20:47;;;;;;;42.88;24.88;;;13.70;95.40;;;;;;6278422;22;20007;-73
2023/01/03 11:23:53;;;;;;;40.45;22.75;;;13.70;95.20;;;;;;6306789;22;20003;-73
2023/01/03 11:26:49;;;;;;;36.47;21.70;;;13.70;95.30;;;;;;6260074;22;20064;-73
2023/01/03 11:29:18;;;;;;;44.33;23.08;;;13.70;95.40;;;;;;6307089;22;20074;-74
2023/01/03 11:32:05;;;;;;;39.15;21.83;;;13.70;95.30;;;;;;6307404;22;20010;-74
2023/01/03 11:34:51;;;;;;;37.88;21.90;;;13.80;95.30;;;;;;6306298;22;19995;-73
2023/01/03 11:37:48;;;;;;;32.00;19.48;;;13.80;95.20;;;;;;6307737;22;20003;-73
2023/01/03 11:40:32;;;;;;;35.53;20.67;;;13.90;95.10;;;;;;6305195;22;20805;-73
2023/01/03 11:43:04;;;;;;;36.13;20.60;;;13.90;94.90;;;;;;6306981;22;20006;-73
2023/01/03 11:45:51;;;;;;;42.03;22.60;;;14.00;95.00;;;;;;6321784;22;20011;-72
2023/01/03 11:49:01;;;;;;;36.13;20.92;;;14.10;95.00;;;;;;6338011;22;20035;-73
2023/01/03 11:51:48;;;;;;;33.30;18.90;;;14.10;94.80;;;;;;6337587;22;20006;-73
2023/01/03 11:55:02;;;;;;;31.23;19.88;;;14.30;94.80;;;;;;6336100;22;20005;-73
2023/01/03 11:57:39;;;;;;;31.98;19.23;;;14.40;94.70;;;;;;6336148;22;20017;-74
2023/01/03 12:00:31;;;;;;;30.08;19.50;;;14.50;94.60;;;;;;6336649;22;19995;-74
2023/01/03 12:03:03;;;;;;;31.45;20.50;;;14.50;94.00;;;;;;6336243;22;20010;-72
2023/01/03 12:05:37;;;;;;;31.48;19.20;;;14.80;93.80;;;;;;6337634;22;20002;-74
2023/01/03 12:08:12;;;;;;;30.27;19.02;;;15.00;93.70;;;;;;6337995;22;20003;-73
2023/01/03 12:10:41;;;;;;;27.60;18.92;;;15.10;93.60;;;;;;6338414;22;20003;-73
2023/01/03 12:13:36;;;;;;;26.00;18.55;;;15.30;93.30;;;;;;6338866;22;19994;-73
2023/01/03 12:16:29;;;;;;;28.73;18.48;;;15.40;93.10;;;;;;6336390;22;20006;-73
2023/01/03 12:19:19;;;;;;;25.42;17.73;;;15.40;92.90;;;;;;6337162;22;19999;-73
2023/01/03 12:21:57;;;;;;;27.27;17.88;;;15.40;92.80;;;;;;6336699;22;19995;-73
2023/01/03 12:24:43;;;;;;;27.40;17.90;;;15.40;92.70;;;;;;6335909;22;20054;-77
2023/01/03 12:27:35;;;;;;;28.48;18.55;;;15.40;92.50;;;;;;6305103;22;20413;-74
2023/01/03 12:30:34;;;;;;;25.15;16.20;;;15.30;92.50;;;;;;6322786;22;20475;-73
2023/01/03 12:33:25;;;;;;;21.70;15.45;;;15.30;92.50;;;;;;6307931;22;19998;-73
2023/01/03 12:36:14;;;;;;;19.70;13.98;;;15.30;92.20;;;;;;6336791;22;19999;-73
2023/01/03 12:38:46;;;;;;;24.13;16.05;;;15.30;92.10;;;;;;6310178;22;19999;-73
2023/01/03 12:41:41;;;;;;;23.33;15.88;;;15.20;92.20;;;;;;6336799;22;20002;-73
2023/01/03 12:44:19;;;;;;;21.88;15.60;;;15.20;92.30;;;;;;6337214;22;20002;-73
2023/01/03 12:46:49;;;;;;;22.75;16.60;;;15.30;92.30;;;;;;6337301;22;20010;-73
2023/01/03 12:49:33;;;;;;;;;;;15.40;92.30;;;;;;6337393;22;20051;-74
2023/01/03 12:51:59;;;;;;;26.52;17.48;;;15.40;92.20;;;;;;6338536;22;19909;-73
2023/01/03 12:54:31;;;;;;;26.98;18.15;;;15.50;92.20;;;;;;6338316;22;20003;-73
2023/01/03 12:57:16;;;;;;;27.45;18.58;;;15.50;92.20;;;;;;6338781;22;20006;-73
2023/01/03 13:00:14;;;;;;;27.23;18.52;;;15.50;92.10;;;;;;6337780;22;20018;-73
2023/01/03 13:02:39;;;;;;;26.67;18.98;;;15.50;92.10;;;;;;6338753;22;19995;-73
2023/01/03 13:05:40;;;;;;;24.80;17.98;;;15.50;92.00;;;;;;6338343;22;20006;-73
2023/01/03 13:08:34;;;;;;;25.50;17.35;;;15.50;91.90;;;;;;6302317;22;20030;-73
2023/01/03 13:11:04;;;;;;;24.60;17.25;;;15.40;91.90;;;;;;6335146;22;20439;-74
2023/01/03 13:13:30;;;;;;;23.50;17.10;;;15.40;91.90;;;;;;6338531;22;20301;-73
2023/01/03 13:15:56;;;;;;;23.17;16.25;;;15.30;91.70;;;;;;6337805;22;19999;-73
2023/01/03 13:18:33;;;;;;;23.00;16.98;;;15.20;91.80;;;;;;6310936;22;20010;-74
2023/01/03 13:20:58;;;;;;;24.70;16.75;;;15.20;91.90;;;;;;6337774;22;20023;-73
2023/01/03 13:23:48;;;;;;;21.98;15.85;;;15.20;92.00;;;;;;6336576;22;20417;-74
2023/01/03 13:26:20;;;;;;;23.10;15.85;;;15.20;92.00;;;;;;6338021;22;20006;-74
2023/01/03 13:28:46;;;;;;;22.70;15.95;;;15.20;92.00;;;;;;6337647;22;20051;-74
2023/01/03 13:31:17;;;;;;;24.10;16.40;;;15.20;92.00;;;;;;6308678;22;20007;-73
2023/01/03 13:34:16;;;;;;;25.13;17.40;;;15.20;92.00;;;;;;6336923;22;20451;-73
2023/01/03 13:37:08;;;;;;;24.10;16.70;;;15.10;91.90;;;;;;6336415;22;20041;-75
2023/01/03 13:39:49;;;;;;;25.40;16.85;;;15.10;92.00;;;;;;6336228;22;20363;-75
2023/01/03 13:42:32;;;;;;;30.45;19.55;;;15.10;92.00;;;;;;6338006;22;20002;-75
2023/01/03 13:45:29;;;;;;;31.65;19.75;;;15.10;92.10;;;;;;6337116;22;20075;-74
2023/01/03 13:48:18;;;;;;;34.20;21.60;;;15.00;92.20;;;;;;6310231;22;19999;-74
2023/01/03 13:51:13;;;;;;;36.25;21.88;;;15.00;92.30;;;;;;6309333;22;20009;-75
2023/01/03 13:53:52;;;;;;;40.25;24.02;;;15.00;92.50;;;;;;6336955;22;19998;-74
2023/01/03 13:56:21;;;;;;;44.33;24.53;;;15.00;92.50;;;;;;6336840;22;20007;-74